Time;durP1;ratioP1;P1;durP2;ratioP2;P2;SDS_P1;SDS_P2;PMS_P1;PMS_P2;Temp;Humidity;BMP_temperature;BMP_pressure;BME280_temperature;BME280_humidity;BME280_pressure;Samples;Min_cycle;Max_cycle;Signal;HPM_P1;HPM_P2
2022/01/02 00:01:48;;;;;;;5.47;3.97;;;6.50;1.00;;;;;;5091802;28;20291;-70
2022/01/02 00:04:16;;;;;;;5.17;4.50;;;6.50;1.00;;;;;;5091445;28;20251;-70
2022/01/02 00:06:47;;;;;;;6.10;4.03;;;6.50;1.00;;;;;;5092055;28;20205;-72
2022/01/02 00:09:25;;;;;;;4.90;3.73;;;6.50;1.00;;;;;;5092174;28;20251;-72
2022/01/02 00:11:58;;;;;;;7.90;3.73;;;6.60;1.00;;;;;;5091748;28;20289;-72
2022/01/02 00:14:32;;;;;;;5.10;4.03;;;6.50;1.00;;;;;;5091165;28;20660;-71
2022/01/02 00:17:01;;;;;;;3.90;3.30;;;6.60;1.00;;;;;;5091447;28;20208;-70
2022/01/02 00:19:31;;;;;;;5.23;3.50;;;6.60;1.00;;;;;;5091180;28;20201;-74
2022/01/02 00:22:00;;;;;;;5.07;3.40;;;6.60;58.00;;;;;;5091564;28;20239;-71
2022/01/02 00:24:29;;;;;;;5.63;3.30;;;6.60;99.90;;;;;;5090513;28;20201;-71
2022/01/02 00:26:58;;;;;;;5.13;3.63;;;6.70;99.90;;;;;;5091465;28;20201;-73
2022/01/02 00:29:25;;;;;;;4.97;3.73;;;6.60;99.90;;;;;;5090797;28;20231;-71
2022/01/02 00:31:54;;;;;;;5.17;4.13;;;6.70;1.00;;;;;;5091067;28;20680;-71
2022/01/02 00:34:22;;;;;;;4.90;3.90;;;6.60;1.00;;;;;;5091030;28;20592;-71
2022/01/02 00:36:49;;;;;;;5.93;3.67;;;6.70;1.00;;;;;;5091365;28;20243;-71
2022/01/02 00:39:17;;;;;;;4.93;3.83;;;6.70;1.00;;;;;;5091341;28;20634;-69
2022/01/02 00:41:51;;;;;;;4.60;3.70;;;6.70;1.00;;;;;;5091246;28;20206;-72
2022/01/02 00:44:25;;;;;;;4.03;3.10;;;6.70;1.00;;;;;;5090611;28;20220;-73
2022/01/02 00:47:05;;;;;;;5.30;4.07;;;6.70;1.00;;;;;;5090941;28;20210;-69
2022/01/02 00:49:38;;;;;;;4.57;3.10;;;6.60;1.00;;;;;;5090725;28;20631;-71
2022/01/02 00:52:08;;;;;;;6.57;4.50;;;6.60;1.00;;;;;;5090708;28;20712;-75
2022/01/02 00:54:40;;;;;;;4.37;3.80;;;6.60;1.00;;;;;;5090931;28;20270;-70
2022/01/02 00:57:14;;;;;;;5.73;4.20;;;6.40;99.90;;;;;;5091128;28;20209;-71
2022/01/02 00:59:51;;;;;;;5.17;3.50;;;6.50;1.00;;;;;;5090789;28;20747;-72
2022/01/02 01:02:29;;;;;;;5.90;3.20;;;6.60;1.00;;;;;;5090355;28;20228;-71
2022/01/02 01:04:59;;;;;;;5.57;3.10;;;6.70;1.00;;;;;;5090909;28;20205;-71
2022/01/02 01:07:27;;;;;;;4.03;3.00;;;6.70;1.00;;;;;;5090637;28;20220;-73
2022/01/02 01:09:56;;;;;;;4.20;3.40;;;6.60;1.00;;;;;;5090749;28;20209;-70
2022/01/02 01:12:23;;;;;;;4.37;3.30;;;6.60;1.00;;;;;;5090495;28;20201;-70
2022/01/02 01:14:51;;;;;;;4.80;3.57;;;6.50;1.00;;;;;;5090671;28;20204;-73
2022/01/02 01:17:20;;;;;;;4.57;2.90;;;6.40;1.00;;;;;;5090148;28;20211;-73
2022/01/02 01:19:47;;;;;;;3.73;2.83;;;6.30;99.90;;;;;;5090944;28;20197;-70
2022/01/02 01:22:14;;;;;;;3.77;3.30;;;6.20;99.90;;;;;;5091092;28;20252;-70
2022/01/02 01:24:41;;;;;;;5.60;3.73;;;6.20;99.90;;;;;;5090599;28;20259;-72
2022/01/02 01:27:09;;;;;;;4.00;3.27;;;6.10;99.90;;;;;;5090745;28;20245;-73
2022/01/02 01:29:36;;;;;;;3.80;3.23;;;6.20;1.00;;;;;;5089801;28;20685;-70
2022/01/02 01:32:04;;;;;;;3.93;2.87;;;6.30;1.00;;;;;;5090828;28;20206;-73
2022/01/02 01:34:33;;;;;;;4.60;2.97;;;6.30;1.00;;;;;;5091512;28;20201;-70
2022/01/02 01:37:00;;;;;;;3.40;2.80;;;6.20;1.00;;;;;;5094856;28;20615;-71
2022/01/02 01:39:27;;;;;;;3.17;2.37;;;6.30;1.00;;;;;;5094186;28;20251;-73
2022/01/02 01:41:56;;;;;;;4.47;2.93;;;6.40;1.00;;;;;;5094493;28;20206;-74
2022/01/02 01:44:40;;;;;;;4.07;3.37;;;6.40;1.00;;;;;;5093688;28;20237;-72
2022/01/02 01:47:07;;;;;;;3.47;3.03;;;6.40;1.00;;;;;;5094367;28;20554;-70
2022/01/02 01:49:36;;;;;;;4.53;2.53;;;6.30;99.90;;;;;;5094204;28;20198;-71
2022/01/02 01:52:03;;;;;;;3.70;3.40;;;6.30;99.90;;;;;;5094410;28;20236;-71
2022/01/02 01:54:30;;;;;;;6.63;4.20;;;6.50;1.00;;;;;;5093892;28;20247;-70
2022/01/02 01:56:57;;;;;;;3.47;2.97;;;6.60;1.00;;;;;;5094657;28;20251;-74
2022/01/02 01:59:24;;;;;;;4.93;3.53;;;6.80;1.00;;;;;;5093624;28;20220;-72
2022/01/02 02:01:52;;;;;;;7.20;3.97;;;7.00;1.00;;;;;;5094374;28;20202;-71
2022/01/02 02:04:19;;;;;;;6.63;4.60;;;7.20;1.00;;;;;;5093704;28;20237;-71
2022/01/02 02:06:47;;;;;;;7.57;4.57;;;7.30;1.00;;;;;;5094215;28;20664;-72
2022/01/02 02:09:15;;;;;;;6.57;4.53;;;7.40;1.00;;;;;;5094281;28;20216;-70
2022/01/02 02:11:42;;;;;;;6.67;4.30;;;7.50;1.00;;;;;;5094803;28;20214;-71
2022/01/02 02:14:09;;;;;;;5.83;4.63;;;7.60;1.00;;;;;;5093681;28;20231;-72
2022/01/02 02:16:37;;;;;;;4.87;3.80;;;7.60;1.00;;;;;;5093281;28;20732;-71
2022/01/02 02:19:05;;;;;;;7.30;4.57;;;7.60;1.00;;;;;;5093929;28;20205;-73
2022/01/02 02:21:35;;;;;;;8.97;5.53;;;7.70;1.00;;;;;;5093504;28;20205;-70
2022/01/02 02:24:03;;;;;;;7.20;4.57;;;7.80;99.90;;;;;;5093652;28;20229;-71
2022/01/02 02:26:32;;;;;;;5.90;3.87;;;7.80;99.90;;;;;;5093343;28;20657;-71
2022/01/02 02:28:59;;;;;;;5.80;5.03;;;7.70;99.90;;;;;;5093573;28;20637;-71
2022/01/02 02:31:26;;;;;;;5.17;3.47;;;7.70;99.40;;;;;;5093427;28;20210;-72
2022/01/02 02:33:53;;;;;;;7.93;4.93;;;7.70;26.20;;;;;;5093677;28;20201;-73
2022/01/02 02:36:20;;;;;;;6.13;4.93;;;7.60;1.00;;;;;;5093226;28;20262;-73
2022/01/02 02:38:48;;;;;;;6.40;4.07;;;7.60;18.10;;;;;;5093470;28;20259;-71
2022/01/02 02:41:15;;;;;;;6.43;4.23;;;7.70;37.40;;;;;;5093315;28;20201;-70
2022/01/02 02:43:48;;;;;;;5.80;3.60;;;7.70;1.00;;;;;;5093476;28;20249;-71
2022/01/02 02:49:05;;;;;;;6.47;4.63;;;7.70;1.00;;;;;;5093520;28;20204;-72
2022/01/02 02:51:49;;;;;;;6.63;3.73;;;7.70;1.00;;;;;;5093030;28;20202;-74
2022/01/02 02:54:22;;;;;;;4.63;3.30;;;7.70;1.00;;;;;;5093275;28;20209;-74
2022/01/02 02:56:58;;;;;;;5.30;4.40;;;7.70;1.00;;;;;;5093124;28;20201;-72
2022/01/02 02:59:26;;;;;;;5.60;4.13;;;7.70;1.00;;;;;;5092746;28;20200;-70
2022/01/02 03:01:54;;;;;;;7.70;3.60;;;7.70;1.00;;;;;;5092927;28;20612;-73
2022/01/02 03:04:22;;;;;;;5.87;3.93;;;7.70;1.00;;;;;;5092546;28;20233;-71
2022/01/02 03:06:49;;;;;;;5.87;3.87;;;7.70;1.00;;;;;;5092977;28;20263;-75
2022/01/02 03:09:27;;;;;;;4.60;3.50;;;7.60;1.00;;;;;;5092925;28;20673;-71
2022/01/02 03:11:56;;;;;;;4.47;3.57;;;7.70;1.00;;;;;;5092719;28;20282;-72
2022/01/02 03:14:23;;;;;;;5.53;3.83;;;7.60;1.00;;;;;;5092348;28;20554;-71
2022/01/02 03:16:50;;;;;;;5.00;3.67;;;7.60;1.00;;;;;;5092661;28;20206;-71
2022/01/02 03:19:16;;;;;;;5.00;3.80;;;7.60;1.00;;;;;;5092568;28;20734;-70
2022/01/02 03:21:43;;;;;;;5.67;3.87;;;7.50;1.00;;;;;;5092990;28;20206;-70
2022/01/02 03:24:10;;;;;;;4.20;3.10;;;7.50;1.00;;;;;;5092724;28;20232;-71
2022/01/02 03:26:37;;;;;;;5.93;4.20;;;7.50;1.00;;;;;;5092038;28;20262;-71
2022/01/02 03:29:06;;;;;;;5.60;3.20;;;7.40;1.00;;;;;;5092472;28;20202;-71
2022/01/02 03:31:33;;;;;;;5.33;3.43;;;7.40;1.00;;;;;;5092227;28;20279;-72
2022/01/02 03:33:59;;;;;;;4.43;3.40;;;7.40;1.00;;;;;;5092499;28;20202;-70
2022/01/02 03:36:26;;;;;;;6.77;4.70;;;7.50;1.00;;;;;;5092131;28;20210;-71
2022/01/02 03:38:53;;;;;;;6.23;4.37;;;7.60;1.00;;;;;;5092327;28;20270;-73
2022/01/02 03:41:20;;;;;;;5.63;3.67;;;7.60;1.00;;;;;;5091721;28;20218;-71
2022/01/02 03:43:47;;;;;;;6.53;4.30;;;7.60;1.00;;;;;;5077538;28;20295;-71
2022/01/02 03:46:16;;;;;;;6.23;4.27;;;7.50;1.00;;;;;;5072496;28;20198;-70
2022/01/02 03:48:43;;;;;;;6.33;4.33;;;7.70;1.00;;;;;;5072217;28;20210;-72
2022/01/02 03:51:10;;;;;;;8.63;4.83;;;7.60;1.00;;;;;;5071891;28;20662;-71
2022/01/02 03:53:37;;;;;;;7.33;4.70;;;7.70;1.00;;;;;;5071198;28;21116;-70
2022/01/02 03:56:04;;;;;;;6.30;5.20;;;7.70;1.00;;;;;;5071642;28;20700;-71
2022/01/02 03:58:31;;;;;;;9.07;5.17;;;7.70;1.00;;;;;;5071275;28;20206;-70
2022/01/02 04:00:58;;;;;;;6.87;5.00;;;7.70;99.90;;;;;;5071768;28;20202;-71
2022/01/02 04:03:26;;;;;;;8.97;5.23;;;7.80;99.90;;;;;;5071176;28;20226;-70
2022/01/02 04:05:53;;;;;;;12.93;6.23;;;7.80;1.00;;;;;;5071421;28;20214;-71
2022/01/02 04:08:20;;;;;;;9.30;5.93;;;7.80;1.00;;;;;;5071471;28;20275;-71
2022/01/02 04:10:47;;;;;;;12.50;6.20;;;7.80;1.00;;;;;;5071556;28;20202;-72
2022/01/02 04:13:14;;;;;;;9.20;6.57;;;7.80;1.00;;;;;;5071943;28;20282;-70
2022/01/02 04:15:41;;;;;;;11.37;7.23;;;7.80;1.00;;;;;;5071356;28;20202;-70
2022/01/02 04:18:08;;;;;;;9.67;6.70;;;7.70;1.00;;;;;;5071386;28;20259;-72
2022/01/02 04:20:36;;;;;;;11.40;6.97;;;7.80;1.00;;;;;;5070859;28;20269;-71
2022/01/02 04:23:03;;;;;;;11.33;7.40;;;7.80;1.00;;;;;;5071190;28;20210;-70
2022/01/02 04:25:30;;;;;;;14.50;6.87;;;7.90;1.00;;;;;;5070722;28;20202;-71
2022/01/02 04:27:57;;;;;;;10.27;6.53;;;7.90;1.00;;;;;;5071262;28;20251;-70
2022/01/02 04:30:24;;;;;;;11.27;6.33;;;7.90;99.90;;;;;;5070913;28;20251;-74
2022/01/02 04:32:52;;;;;;;12.17;6.77;;;7.90;99.90;;;;;;5071061;28;20202;-71
2022/01/02 04:35:19;;;;;;;12.03;7.30;;;7.90;1.00;;;;;;5070825;28;20580;-70
2022/01/02 04:37:48;;;;;;;10.93;7.47;;;7.90;1.00;;;;;;5071136;28;20256;-71
2022/01/02 04:40:15;;;;;;;13.50;7.70;;;7.80;1.00;;;;;;5071433;28;20655;-70
2022/01/02 04:42:42;;;;;;;12.00;7.40;;;7.90;1.00;;;;;;5071291;28;20209;-71
2022/01/02 04:45:09;;;;;;;11.50;7.47;;;7.90;1.00;;;;;;5070813;28;20279;-73
2022/01/02 04:47:36;;;;;;;16.17;10.33;;;7.90;99.90;;;;;;5070597;28;20453;-71
2022/01/02 04:50:06;;;;;;;19.93;10.37;;;7.90;99.90;;;;;;5070894;28;20673;-72
2022/01/02 04:52:33;;;;;;;15.10;9.40;;;7.90;99.90;;;;;;5070092;28;20707;-70
2022/01/02 04:55:01;;;;;;;17.87;10.97;;;7.80;1.00;;;;;;5070944;28;20213;-72
2022/01/02 04:57:28;;;;;;;16.60;11.07;;;7.80;1.00;;;;;;5070788;28;20201;-71
2022/01/02 04:59:55;;;;;;;19.40;11.57;;;7.80;1.00;;;;;;5070912;28;20202;-71
2022/01/02 05:02:22;;;;;;;17.03;10.80;;;7.70;1.00;;;;;;5070554;28;20210;-71
2022/01/02 05:04:49;;;;;;;14.97;10.37;;;7.70;1.00;;;;;;5070871;28;20229;-72
2022/01/02 05:07:16;;;;;;;17.77;9.63;;;7.80;1.00;;;;;;5070649;28;20198;-74
2022/01/02 05:09:43;;;;;;;14.30;7.83;;;7.80;1.00;;;;;;5070697;28;20290;-71
2022/01/02 05:12:11;;;;;;;16.60;9.73;;;7.80;1.00;;;;;;5071630;28;20202;-73
2022/01/02 05:14:38;;;;;;;16.67;9.47;;;7.80;1.00;;;;;;5070232;28;20255;-70
2022/01/02 05:17:06;;;;;;;15.03;8.30;;;7.80;1.00;;;;;;5070491;28;20271;-70
2022/01/02 05:19:33;;;;;;;15.90;8.77;;;7.80;99.90;;;;;;5070264;28;20206;-72
2022/01/02 05:22:01;;;;;;;14.50;9.30;;;7.80;1.00;;;;;;5070465;28;20622;-71
2022/01/02 05:24:28;;;;;;;12.43;8.93;;;7.70;1.00;;;;;;5070308;28;20283;-71
2022/01/02 05:26:55;;;;;;;14.73;7.67;;;7.60;1.00;;;;;;5070573;28;20251;-71
2022/01/02 05:29:24;;;;;;;14.53;7.77;;;7.60;1.00;;;;;;5069883;28;20236;-71
2022/01/02 05:31:51;;;;;;;11.80;8.27;;;7.50;1.00;;;;;;5070602;28;20584;-70
2022/01/02 05:34:19;;;;;;;12.87;8.50;;;7.50;1.00;;;;;;5070136;28;20632;-71
2022/01/02 05:36:48;;;;;;;13.87;9.03;;;7.50;1.00;;;;;;5070328;28;20661;-72
2022/01/02 05:39:17;;;;;;;15.70;8.13;;;7.50;1.00;;;;;;5070533;28;20259;-72
2022/01/02 05:41:45;;;;;;;14.63;9.23;;;7.50;1.00;;;;;;5070489;28;20220;-72
2022/01/02 05:44:11;;;;;;;16.03;8.67;;;7.40;1.00;;;;;;5070633;28;20311;-73
2022/01/02 05:46:40;;;;;;;13.73;7.87;;;7.40;1.00;;;;;;5070212;28;20248;-70
2022/01/02 05:49:07;;;;;;;15.07;10.10;;;7.50;1.00;;;;;;5070573;28;20260;-70
2022/01/02 05:51:35;;;;;;;18.17;9.47;;;7.50;1.00;;;;;;5069696;28;20206;-71
2022/01/02 05:54:02;;;;;;;20.63;9.87;;;7.50;1.00;;;;;;5069873;28;20206;-72
2022/01/02 05:56:29;;;;;;;14.73;8.57;;;7.50;1.00;;;;;;5070091;28;20210;-73
2022/01/02 05:58:56;;;;;;;17.97;10.00;;;7.40;1.00;;;;;;5070011;28;20727;-70
2022/01/02 06:01:23;;;;;;;16.10;9.90;;;7.30;1.00;;;;;;5069461;28;20202;-70
2022/01/02 06:03:51;;;;;;;17.00;9.97;;;7.30;1.00;;;;;;5070071;28;20726;-73
2022/01/02 06:06:19;;;;;;;17.37;10.77;;;7.20;1.00;;;;;;5069695;28;20261;-71
2022/01/02 06:08:46;;;;;;;17.87;9.93;;;7.20;1.00;;;;;;5070187;28;20248;-73
2022/01/02 06:11:13;;;;;;;16.50;9.77;;;7.10;1.00;;;;;;5070463;28;20259;-71
2022/01/02 06:13:40;;;;;;;20.73;12.73;;;7.10;1.00;;;;;;5070129;28;20209;-71
2022/01/02 06:16:08;;;;;;;17.53;11.33;;;7.10;1.00;;;;;;5070147;28;20206;-73
2022/01/02 06:18:35;;;;;;;21.03;12.23;;;7.10;99.90;;;;;;5069855;28;20202;-72
2022/01/02 06:21:03;;;;;;;22.27;12.87;;;7.00;99.90;;;;;;5070154;28;20237;-72
2022/01/02 06:23:30;;;;;;;26.07;13.97;;;7.00;99.90;;;;;;5072977;28;20555;-70
2022/01/02 06:25:57;;;;;;;22.30;12.03;;;7.00;99.90;;;;;;5073389;28;20237;-70
2022/01/02 06:28:24;;;;;;;26.03;14.20;;;7.00;99.90;;;;;;5073319;28;20202;-73
2022/01/02 06:30:51;;;;;;;26.63;14.13;;;7.00;99.90;;;;;;5073524;28;20247;-72
2022/01/02 06:33:18;;;;;;;23.13;13.53;;;7.00;99.90;;;;;;5073229;28;20198;-70
2022/01/02 06:35:45;;;;;;;29.67;14.30;;;7.00;1.00;;;;;;5073249;28;20252;-70
2022/01/02 06:38:16;;;;;;;25.27;15.23;;;7.00;1.00;;;;;;5073675;28;20206;-73
2022/01/02 06:40:43;;;;;;;33.87;16.43;;;7.00;1.00;;;;;;5073294;28;20670;-70
2022/01/02 06:43:10;;;;;;;28.67;15.77;;;7.00;1.00;;;;;;5073599;28;20209;-71
2022/01/02 06:45:37;;;;;;;28.47;15.70;;;7.00;1.00;;;;;;5072758;28;20245;-71
2022/01/02 06:48:05;;;;;;;34.23;17.90;;;7.00;1.00;;;;;;5073270;28;20636;-74
2022/01/02 06:50:33;;;;;;;28.63;15.77;;;7.00;1.00;;;;;;5072287;28;20267;-73
2022/01/02 06:53:00;;;;;;;29.43;15.63;;;7.10;1.00;;;;;;5072914;28;20251;-71
2022/01/02 06:55:29;;;;;;;31.70;16.63;;;7.10;1.00;;;;;;5072802;28;20199;-70
2022/01/02 06:57:56;;;;;;;24.63;14.80;;;7.10;1.00;;;;;;5073050;28;20247;-72
2022/01/02 07:00:22;;;;;;;24.73;15.40;;;7.10;1.00;;;;;;5072402;28;20202;-70
2022/01/02 07:02:49;;;;;;;32.13;17.50;;;7.00;1.00;;;;;;5072496;28;20202;-71
2022/01/02 07:05:17;;;;;;;30.93;18.03;;;7.00;1.00;;;;;;5072806;28;20283;-72
2022/01/02 07:07:46;;;;;;;31.03;17.57;;;7.00;1.00;;;;;;5073311;28;20589;-71
2022/01/02 07:10:14;;;;;;;35.63;18.30;;;7.00;1.00;;;;;;5073153;28;20205;-71
2022/01/02 07:12:42;;;;;;;33.27;19.60;;;7.00;1.00;;;;;;5072583;28;20248;-73
2022/01/02 07:15:11;;;;;;;33.50;18.30;;;7.00;1.00;;;;;;5072562;28;20234;-71
2022/01/02 07:17:38;;;;;;;35.27;18.30;;;7.00;1.00;;;;;;5072141;28;20669;-71
2022/01/02 07:20:06;;;;;;;29.70;18.50;;;7.00;1.00;;;;;;5072470;28;20592;-71
2022/01/02 07:22:33;;;;;;;33.80;17.83;;;7.00;1.00;;;;;;5071799;28;20727;-71
2022/01/02 07:25:00;;;;;;;30.40;17.37;;;7.00;1.00;;;;;;5072300;28;20272;-71
2022/01/02 07:27:27;;;;;;;37.23;19.67;;;7.00;1.00;;;;;;5071982;28;20247;-71
2022/01/02 07:29:56;;;;;;;33.87;18.10;;;7.00;1.00;;;;;;5072453;28;20202;-70
2022/01/02 07:32:23;;;;;;;34.10;16.20;;;7.00;1.00;;;;;;5071259;28;20203;-70
2022/01/02 07:34:50;;;;;;;34.47;19.03;;;6.90;99.90;;;;;;5072646;28;20206;-71
2022/01/02 07:37:18;;;;;;;34.03;19.47;;;7.00;99.90;;;;;;5071857;28;20248;-71
2022/01/02 07:39:45;;;;;;;35.17;18.87;;;7.00;1.00;;;;;;5072634;28;20210;-71
2022/01/02 07:42:12;;;;;;;30.57;18.63;;;6.90;99.90;;;;;;5072420;28;20202;-71
2022/01/02 07:44:39;;;;;;;37.40;18.57;;;6.90;1.00;;;;;;5071554;28;20295;-70
2022/01/02 07:47:09;;;;;;;32.70;19.83;;;6.90;1.00;;;;;;5071860;28;20723;-70
2022/01/02 07:49:36;;;;;;;32.83;17.43;;;6.90;1.00;;;;;;5071599;28;20210;-73
2022/01/02 07:52:03;;;;;;;31.77;18.60;;;6.90;1.00;;;;;;5071992;28;20731;-72
2022/01/02 07:54:30;;;;;;;29.27;17.63;;;6.90;1.00;;;;;;5071287;28;20240;-72
2022/01/02 07:56:57;;;;;;;31.97;17.63;;;6.90;1.00;;;;;;5071875;28;20199;-71
2022/01/02 07:59:24;;;;;;;32.77;20.00;;;6.90;1.00;;;;;;5071356;28;20202;-71
2022/01/02 08:01:51;;;;;;;38.27;20.23;;;7.00;1.00;;;;;;5071560;28;20244;-70
2022/01/02 08:04:19;;;;;;;31.83;18.80;;;6.90;1.00;;;;;;5071325;28;20260;-71
2022/01/02 08:06:46;;;;;;;36.80;19.63;;;6.90;1.00;;;;;;5071710;28;20202;-71
2022/01/02 08:09:13;;;;;;;38.27;21.43;;;7.00;1.00;;;;;;5071859;28;20554;-70
2022/01/02 08:11:40;;;;;;;30.73;18.60;;;6.90;1.00;;;;;;5071357;28;20206;-71
2022/01/02 08:14:07;;;;;;;32.00;19.67;;;7.00;1.00;;;;;;5071210;28;20206;-69
2022/01/02 08:16:34;;;;;;;33.03;18.43;;;7.10;1.00;;;;;;5071389;28;20259;-70
2022/01/02 08:19:01;;;;;;;32.73;18.60;;;7.10;1.00;;;;;;5071471;28;20642;-69
2022/01/02 08:21:30;;;;;;;28.57;18.67;;;7.20;1.00;;;;;;5071205;28;20209;-70
2022/01/02 08:23:57;;;;;;;31.00;18.07;;;7.10;99.90;;;;;;5071304;28;20198;-70
2022/01/02 08:26:24;;;;;;;32.77;19.33;;;7.10;99.90;;;;;;5070793;28;20234;-70
2022/01/02 08:28:52;;;;;;;33.33;18.47;;;7.10;99.90;;;;;;5071374;28;20198;-75
2022/01/02 08:31:19;;;;;;;33.37;18.07;;;7.00;99.90;;;;;;5070858;28;20206;-71
2022/01/02 08:33:46;;;;;;;34.83;19.10;;;7.00;99.90;;;;;;5071135;28;20256;-71
2022/01/02 08:36:13;;;;;;;33.93;18.67;;;7.00;99.90;;;;;;5071251;28;20263;-72
2022/01/02 08:38:41;;;;;;;31.87;19.20;;;7.00;99.90;;;;;;5070659;28;20252;-70
2022/01/02 08:41:08;;;;;;;34.57;17.67;;;7.00;99.90;;;;;;5070928;28;20673;-70
2022/01/02 08:43:35;;;;;;;38.17;18.70;;;7.00;99.90;;;;;;5070008;28;20246;-74
2022/01/02 08:46:02;;;;;;;35.50;17.00;;;7.00;99.90;;;;;;5070723;28;20240;-70
2022/01/02 08:48:29;;;;;;;33.83;19.23;;;7.10;99.90;;;;;;5070472;28;20198;-70
2022/01/02 08:50:56;;;;;;;30.87;19.80;;;7.10;99.90;;;;;;5070789;28;20212;-70
2022/01/02 08:53:23;;;;;;;34.07;22.10;;;7.10;99.90;;;;;;5070484;28;20202;-70
2022/01/02 08:55:51;;;;;;;31.10;21.97;;;7.20;99.90;;;;;;5071178;28;20201;-70
2022/01/02 08:58:19;;;;;;;37.57;23.43;;;7.40;1.00;;;;;;5070472;28;20202;-71
2022/01/02 09:00:46;;;;;;;37.23;23.03;;;7.90;1.00;;;;;;5070662;28;20686;-70
2022/01/02 09:03:14;;;;;;;33.67;20.73;;;8.10;1.00;;;;;;5071023;28;20658;-70
2022/01/02 09:05:41;;;;;;;36.87;23.37;;;8.10;1.00;;;;;;5070650;28;20233;-71
2022/01/02 09:08:08;;;;;;;32.43;20.07;;;8.50;1.00;;;;;;5070693;28;20657;-70
2022/01/02 09:10:35;;;;;;;30.30;20.47;;;8.70;1.00;;;;;;5070625;28;20642;-70
2022/01/02 09:13:04;;;;;;;30.97;19.67;;;8.70;1.00;;;;;;5070849;28;20202;-70
2022/01/02 09:15:31;;;;;;;33.93;22.40;;;9.00;1.00;;;;;;5070044;28;20206;-71
2022/01/02 09:17:58;;;;;;;31.07;18.67;;;9.10;1.00;;;;;;5070624;28;20210;-71
2022/01/02 09:20:25;;;;;;;24.23;16.17;;;9.20;1.00;;;;;;5070250;28;20202;-70
2022/01/02 09:22:52;;;;;;;26.30;15.60;;;9.50;1.00;;;;;;5070881;28;20202;-71
2022/01/02 09:25:19;;;;;;;27.27;16.43;;;9.80;1.00;;;;;;5070233;28;20238;-71
2022/01/02 09:27:46;;;;;;;24.40;14.07;;;9.90;1.00;;;;;;5070491;28;20206;-72
2022/01/02 09:30:14;;;;;;;19.87;14.37;;;10.50;1.00;;;;;;5070914;28;20201;-71
2022/01/02 09:32:42;;;;;;;18.67;13.03;;;11.30;1.00;;;;;;5070533;28;20255;-73
2022/01/02 09:35:11;;;;;;;20.33;13.60;;;10.00;1.00;;;;;;5070317;28;20206;-72
2022/01/02 09:37:38;;;;;;;22.97;13.57;;;9.90;1.00;;;;;;5070218;28;20210;-70
2022/01/02 09:40:07;;;;;;;17.63;12.33;;;9.90;1.00;;;;;;5070465;28;20713;-72
2022/01/02 09:42:35;;;;;;;20.43;12.93;;;10.20;1.00;;;;;;5069884;28;20202;-72
2022/01/02 09:45:03;;;;;;;24.03;14.17;;;10.90;1.00;;;;;;5070279;28;20304;-71
2022/01/02 09:47:33;;;;;;;17.47;11.87;;;10.80;1.00;;;;;;5070054;28;20206;-71
2022/01/02 09:50:03;;;;;;;15.53;11.90;;;10.90;1.00;;;;;;5070712;28;20539;-70
2022/01/02 09:52:30;;;;;;;17.20;10.90;;;11.90;1.00;;;;;;5070182;28;20206;-74
2022/01/02 09:54:57;;;;;;;16.13;11.47;;;12.40;1.00;;;;;;5070691;28;20248;-72
2022/01/02 09:57:24;;;;;;;17.67;11.50;;;11.40;1.00;;;;;;5073488;28;20206;-71
2022/01/02 09:59:53;;;;;;;16.37;12.30;;;12.40;1.00;;;;;;5073952;28;20620;-74
2022/01/02 10:02:20;;;;;;;14.60;10.90;;;15.10;1.00;;;;;;5073921;28;20210;-70
2022/01/02 10:04:48;;;;;;;16.83;12.02;;;15.40;1.00;;;;;;5073831;28;20210;-73
2022/01/02 10:07:30;;;;;;;16.10;11.07;;;14.60;1.00;;;;;;5074348;28;20202;-71
2022/01/02 10:09:57;;;;;;;11.82;9.35;;;14.60;1.00;;;;;;5073832;28;20202;-69
2022/01/02 10:12:27;;;;;;;15.40;10.98;;;14.70;1.00;;;;;;5073038;28;20202;-71
2022/01/02 10:15:14;;;;;;;17.23;10.95;;;15.70;1.00;;;;;;5073631;28;20612;-70
2022/01/02 10:17:59;;;;;;;14.48;9.55;;;15.60;1.00;;;;;;5073852;28;20198;-70
2022/01/02 10:20:30;;;;;;;14.73;9.63;;;15.50;1.00;;;;;;5073278;28;20197;-70
2022/01/02 10:23:15;;;;;;;13.27;10.00;;;16.00;1.00;;;;;;5073603;28;20678;-71
2022/01/02 10:25:48;;;;;;;14.88;11.05;;;16.90;1.00;;;;;;5073768;28;20696;-71
2022/01/02 10:28:20;;;;;;;14.35;9.80;;;18.20;1.00;;;;;;5073563;28;20210;-71
2022/01/02 10:30:48;;;;;;;13.50;10.02;;;19.40;1.00;;;;;;5073583;28;20214;-70
2022/01/02 10:33:16;;;;;;;13.68;9.95;;;18.70;1.00;;;;;;5073598;28;20607;-70
2022/01/02 10:35:45;;;;;;;14.43;10.55;;;19.20;1.00;;;;;;5073954;28;20206;-70
2022/01/02 10:38:17;;;;;;;13.70;10.68;;;19.70;1.00;;;;;;5073882;28;20353;-70
2022/01/02 10:40:46;;;;;;;13.25;9.45;;;16.10;1.00;;;;;;5073474;28;20198;-71
2022/01/02 10:43:27;;;;;;;13.10;9.80;;;16.80;1.00;;;;;;5073439;28;20320;-70
2022/01/02 10:45:55;;;;;;;13.57;9.65;;;15.90;1.00;;;;;;5073063;28;20226;-73
2022/01/02 10:48:33;;;;;;;14.43;10.45;;;17.60;1.00;;;;;;5072669;28;20285;-70
2022/01/02 10:51:07;;;;;;;12.45;8.73;;;15.90;1.00;;;;;;5072932;28;20197;-72
2022/01/02 10:53:36;;;;;;;12.45;8.48;;;14.00;1.00;;;;;;5072682;28;20202;-70
2022/01/02 10:56:05;;;;;;;12.05;9.63;;;13.40;1.00;;;;;;5072823;28;20202;-72
2022/01/02 10:58:34;;;;;;;15.55;9.30;;;13.20;1.00;;;;;;5072510;28;20202;-70
2022/01/02 11:01:05;;;;;;;13.40;10.15;;;13.60;1.00;;;;;;5072932;28;20225;-72
2022/01/02 11:03:33;;;;;;;16.98;10.63;;;13.50;1.00;;;;;;5072383;28;20255;-71
2022/01/02 11:06:07;;;;;;;12.70;9.45;;;13.20;1.00;;;;;;5072539;28;20801;-72
2022/01/02 11:08:36;;;;;;;12.70;8.80;;;13.40;1.00;;;;;;5071785;28;20201;-75
2022/01/02 11:11:05;;;;;;;13.48;9.60;;;13.40;1.00;;;;;;5072586;28;20206;-71
2022/01/02 11:13:33;;;;;;;14.40;11.93;;;13.50;1.00;;;;;;5072344;28;20202;-71
2022/01/02 11:16:02;;;;;;;14.00;10.38;;;13.50;1.00;;;;;;5072875;28;20213;-76
2022/01/02 11:18:32;;;;;;;15.25;10.32;;;13.30;1.00;;;;;;5072266;28;20217;-71
2022/01/02 11:20:59;;;;;;;13.75;10.18;;;13.40;1.00;;;;;;5072794;28;20206;-72
2022/01/02 11:23:33;;;;;;;15.43;10.45;;;13.70;1.00;;;;;;5071889;28;20730;-71
2022/01/02 11:26:08;;;;;;;13.52;9.07;;;13.60;1.00;;;;;;5072201;28;20260;-73
2022/01/02 11:28:39;;;;;;;15.07;9.82;;;13.70;1.00;;;;;;5072024;28;20206;-75
2022/01/02 11:31:07;;;;;;;14.68;9.60;;;13.30;1.00;;;;;;5072433;28;20214;-72
2022/01/02 11:33:36;;;;;;;13.23;9.50;;;13.00;1.00;;;;;;5072031;28;20209;-73
2022/01/02 11:36:22;;;;;;;13.20;9.00;;;13.00;1.00;;;;;;5072202;28;20210;-71
2022/01/02 11:39:02;;;;;;;13.95;9.13;;;12.70;1.00;;;;;;5072033;28;20214;-70
2022/01/02 11:41:40;;;;;;;11.52;9.00;;;12.80;1.00;;;;;;5071877;28;20280;-71
2022/01/02 11:44:09;;;;;;;14.52;9.73;;;12.50;1.00;;;;;;5071958;28;20222;-72
2022/01/02 11:46:42;;;;;;;12.65;9.77;;;12.50;1.00;;;;;;5071962;28;20333;-72
2022/01/02 11:49:26;;;;;;;17.08;10.82;;;12.80;1.00;;;;;;5071877;28;20679;-70
2022/01/02 11:52:10;;;;;;;15.85;8.65;;;13.00;1.00;;;;;;5071986;28;20202;-70
2022/01/02 11:54:46;;;;;;;15.07;10.18;;;13.20;1.00;;;;;;5071376;28;20206;-70
2022/01/02 11:57:55;;;;;;;12.90;8.48;;;13.30;1.00;;;;;;5072082;28;20205;-72
2022/01/02 12:00:40;;;;;;;15.60;10.23;;;13.30;1.00;;;;;;5071300;28;20202;-73
2022/01/02 12:03:28;;;;;;;10.60;8.13;;;13.30;1.00;;;;;;5071804;28;21058;-71
2022/01/02 12:06:17;;;;;;;12.00;8.90;;;13.10;1.00;;;;;;5071388;28;20640;-71
2022/01/02 12:08:45;;;;;;;14.48;8.55;;;13.10;1.00;;;;;;5071724;28;20206;-70
2022/01/02 12:11:42;;;;;;;11.80;8.90;;;13.00;1.00;;;;;;5071856;28;20206;-71
2022/01/02 12:14:12;;;;;;;11.48;8.77;;;12.90;1.00;;;;;;5071476;28;20734;-71
2022/01/02 12:16:40;;;;;;;10.75;8.70;;;12.70;1.00;;;;;;5071250;28;20628;-71
2022/01/02 12:19:09;;;;;;;12.35;8.02;;;12.60;1.00;;;;;;5071417;28;20213;-70
2022/01/02 12:21:36;;;;;;;13.13;10.07;;;12.60;1.00;;;;;;5070905;28;20206;-71
2022/01/02 12:24:07;;;;;;;12.00;9.20;;;12.50;1.00;;;;;;5071346;28;20201;-71
2022/01/02 12:26:39;;;;;;;8.82;7.22;;;12.60;1.00;;;;;;5070683;28;20240;-74
2022/01/02 12:29:12;;;;;;;10.05;6.65;;;12.70;1.00;;;;;;5071140;28;20205;-72
2022/01/02 12:31:41;;;;;;;10.43;8.85;;;12.80;1.00;;;;;;5070937;28;20220;-71
2022/01/02 12:34:11;;;;;;;11.82;9.23;;;12.90;1.00;;;;;;5071049;28;20730;-72
2022/01/02 12:36:41;;;;;;;13.73;9.48;;;13.10;1.00;;;;;;5070307;28;20206;-72
2022/01/02 12:39:09;;;;;;;12.65;9.65;;;13.10;1.00;;;;;;5071394;28;20259;-72
2022/01/02 12:41:38;;;;;;;10.52;7.93;;;13.10;1.00;;;;;;5070797;28;20202;-70
2022/01/02 12:44:07;;;;;;;10.73;7.40;;;13.20;1.00;;;;;;5071064;28;20546;-71
2022/01/02 12:46:39;;;;;;;13.73;9.15;;;13.20;1.00;;;;;;5070595;28;20237;-71
2022/01/02 12:49:08;;;;;;;11.35;8.50;;;13.10;1.00;;;;;;5070971;28;20206;-71
2022/01/02 12:51:37;;;;;;;9.00;6.82;;;13.00;1.00;;;;;;5070586;28;20611;-71
2022/01/02 12:54:06;;;;;;;9.48;8.48;;;13.00;1.00;;;;;;5070905;28;20259;-72
2022/01/02 12:56:38;;;;;;;13.50;6.85;;;13.20;1.00;;;;;;5070470;28;20243;-71
2022/01/02 12:59:17;;;;;;;11.77;8.95;;;13.30;1.00;;;;;;5070773;28;21140;-71
2022/01/02 13:01:49;;;;;;;8.38;6.10;;;13.40;1.00;;;;;;5071230;28;20201;-71
2022/01/02 13:04:17;;;;;;;7.35;5.80;;;13.50;1.00;;;;;;5071041;28;20202;-76
2022/01/02 13:06:46;;;;;;;10.45;7.28;;;13.60;1.00;;;;;;5070965;28;20325;-71